Time;durP1;ratioP1;P1;durP2;ratioP2;P2;SDS_P1;SDS_P2;PMS_P1;PMS_P2;Temp;Humidity;BMP_temperature;BMP_pressure;BME280_temperature;BME280_humidity;BME280_pressure;Samples;Min_cycle;Max_cycle;Signal;HPM_P1;HPM_P2
2022/10/31 00:01:11;;;;;;;0.82;0.50;;;26.20;99.90;;;;;;4969515;28;20209;-79
2022/10/31 00:03:42;;;;;;;4.32;0.75;;;26.40;99.90;;;;;;4952037;29;20516;-79
2022/10/31 00:06:13;;;;;;;0.98;0.55;;;26.50;99.90;;;;;;4965333;28;20203;-79
2022/10/31 00:08:45;;;;;;;0.95;0.63;;;26.50;99.90;;;;;;4966060;28;20220;-78
2022/10/31 00:11:16;;;;;;;1.65;0.60;;;26.60;99.90;;;;;;4951735;29;20567;-80
2022/10/31 00:13:47;;;;;;;4.00;0.80;;;26.60;99.90;;;;;;4951649;29;20210;-79
2022/10/31 00:16:20;;;;;;;1.20;0.60;;;26.60;99.90;;;;;;4951953;29;20647;-80
2022/10/31 00:18:52;;;;;;;1.10;0.52;;;26.70;99.90;;;;;;4951658;28;20240;-80
2022/10/31 00:21:25;;;;;;;1.90;0.50;;;26.70;99.90;;;;;;4956197;28;20234;-79
2022/10/31 00:23:58;;;;;;;2.58;0.47;;;26.70;99.90;;;;;;4956365;28;20203;-79
2022/10/31 00:26:29;;;;;;;5.25;0.90;;;26.70;99.90;;;;;;4955665;29;20200;-80
2022/10/31 00:29:00;;;;;;;3.25;0.63;;;26.70;99.90;;;;;;4955506;29;20228;-80
2022/10/31 00:31:32;;;;;;;0.68;0.57;;;26.60;99.90;;;;;;4955497;29;20204;-79
2022/10/31 00:34:04;;;;;;;1.50;0.70;;;26.50;99.90;;;;;;4955599;29;20536;-79
2022/10/31 00:36:34;;;;;;;2.85;0.80;;;26.40;99.90;;;;;;4956022;29;20200;-80
2022/10/31 00:39:08;;;;;;;1.05;0.60;;;26.30;99.90;;;;;;4956594;28;20206;-80
2022/10/31 00:41:38;;;;;;;7.15;1.05;;;26.40;99.90;;;;;;4958923;29;20242;-80
2022/10/31 00:44:09;;;;;;;1.67;0.50;;;26.40;99.90;;;;;;4958857;29;20195;-80
2022/10/31 00:46:40;;;;;;;2.72;0.90;;;26.50;99.90;;;;;;4958705;29;20208;-79
2022/10/31 00:49:11;;;;;;;3.17;0.95;;;26.60;99.90;;;;;;4956906;29;20228;-79
2022/10/31 00:51:42;;;;;;;5.95;1.33;;;26.70;99.90;;;;;;4957532;29;20200;-79
2022/10/31 00:54:14;;;;;;;5.47;1.45;;;26.60;99.90;;;;;;4956426;29;20202;-79
2022/10/31 00:56:45;;;;;;;2.83;0.95;;;26.40;99.90;;;;;;4956477;28;20202;-79
2022/10/31 00:59:17;;;;;;;1.75;0.68;;;26.50;99.90;;;;;;4956561;29;20216;-79
2022/10/31 01:01:47;;;;;;;4.40;1.20;;;26.60;99.90;;;;;;4955902;29;20283;-79
2022/10/31 01:04:18;;;;;;;3.22;0.85;;;26.80;99.90;;;;;;4956700;29;20234;-79
2022/10/31 01:06:49;;;;;;;3.30;0.77;;;26.90;99.90;;;;;;4956308;29;20210;-79
2022/10/31 01:09:22;;;;;;;1.05;0.50;;;27.10;99.90;;;;;;4954037;29;20232;-80
2022/10/31 01:11:53;;;;;;;1.80;0.75;;;27.40;99.90;;;;;;4955699;29;20618;-80
2022/10/31 01:14:24;;;;;;;2.55;0.65;;;27.70;99.90;;;;;;4972188;28;20199;-79
2022/10/31 01:16:55;;;;;;;1.60;0.55;;;28.10;99.90;;;;;;4975229;28;20286;-79
2022/10/31 01:19:25;;;;;;;2.60;0.63;;;28.50;99.90;;;;;;4975032;28;20209;-80
2022/10/31 01:21:58;;;;;;;0.93;0.40;;;28.90;99.90;;;;;;4975024;28;20554;-78
2022/10/31 01:24:31;;;;;;;2.15;0.60;;;29.20;99.90;;;;;;4961403;28;20641;-79
2022/10/31 01:27:02;;;;;;;1.23;0.50;;;29.40;99.90;;;;;;4954760;29;20218;-79
2022/10/31 01:29:32;;;;;;;1.48;0.57;;;29.60;99.90;;;;;;4954743;28;20256;-79
2022/10/31 01:32:03;;;;;;;1.55;0.50;;;29.60;99.90;;;;;;4946903;29;20287;-79
2022/10/31 01:34:34;;;;;;;0.82;0.50;;;29.50;99.40;;;;;;4955918;29;20214;-78
2022/10/31 01:37:05;;;;;;;0.57;0.45;;;29.30;99.50;;;;;;4954964;29;20203;-80
2022/10/31 01:39:39;;;;;;;1.17;0.40;;;29.20;99.60;;;;;;4955905;29;20558;-79
2022/10/31 01:42:09;;;;;;;2.78;0.60;;;29.00;99.90;;;;;;4957143;29;20192;-79
2022/10/31 01:44:56;;;;;;;1.63;0.60;;;28.80;99.90;;;;;;4954821;29;20275;-79
2022/10/31 01:47:36;;;;;;;0.50;0.40;;;28.60;99.90;;;;;;4962327;28;20210;-79
2022/10/31 01:50:13;;;;;;;1.05;0.50;;;28.50;99.90;;;;;;4974210;28;20573;-79
2022/10/31 01:52:47;;;;;;;1.15;0.60;;;28.40;99.90;;;;;;4962691;28;20200;-78
2022/10/31 01:55:25;;;;;;;3.55;0.60;;;28.50;99.90;;;;;;4958638;29;20677;-79
2022/10/31 01:58:00;;;;;;;1.15;0.65;;;28.50;99.90;;;;;;4952879;29;20227;-80
2022/10/31 02:00:32;;;;;;;0.80;0.68;;;28.50;99.90;;;;;;4954393;29;20199;-80
2022/10/31 02:03:02;;;;;;;1.85;0.60;;;28.40;99.90;;;;;;4954323;29;20242;-80
2022/10/31 02:05:35;;;;;;;1.75;0.60;;;28.40;99.90;;;;;;4955506;28;20682;-79
2022/10/31 02:08:09;;;;;;;2.45;0.98;;;28.40;99.90;;;;;;4954393;29;20224;-79
2022/10/31 02:10:42;;;;;;;1.15;0.60;;;28.50;99.90;;;;;;4954032;29;20203;-78
2022/10/31 02:13:14;;;;;;;1.73;0.55;;;28.60;99.90;;;;;;4954421;29;20765;-78
2022/10/31 02:15:47;;;;;;;2.35;0.45;;;28.60;99.90;;;;;;4953135;29;20200;-78
2022/10/31 02:18:19;;;;;;;5.88;0.55;;;28.60;98.80;;;;;;4954611;29;20240;-78
2022/10/31 02:21:01;;;;;;;0.30;0.30;;;28.50;95.80;;;;;;4957660;28;20244;-79
2022/10/31 02:24:18;;;;;;;1.98;0.47;;;28.50;94.40;;;;;;4973731;28;20203;-79
2022/10/31 02:27:02;;;;;;;2.90;0.40;;;28.30;94.70;;;;;;4974352;28;20195;-79
2022/10/31 02:30:13;;;;;;;1.42;0.30;;;28.10;97.20;;;;;;4972967;28;20689;-78
2022/10/31 02:33:07;;;;;;;1.15;0.30;;;28.00;99.90;;;;;;4934236;29;20328;-78
2022/10/31 02:35:56;;;;;;;1.15;0.40;;;27.90;99.90;;;;;;4935007;29;20231;-78
2022/10/31 02:38:36;;;;;;;0.75;0.50;;;27.80;99.90;;;;;;4943518;28;20215;-79
2022/10/31 02:41:14;;;;;;;3.10;0.40;;;27.70;99.90;;;;;;4953495;28;20602;-80
2022/10/31 02:43:53;;;;;;;2.58;0.50;;;27.60;99.90;;;;;;4953629;29;20283;-79
2022/10/31 02:46:30;;;;;;;1.30;0.50;;;27.60;99.90;;;;;;4955035;29;20192;-80
2022/10/31 02:49:10;;;;;;;1.33;0.60;;;27.50;99.90;;;;;;4953548;29;20235;-79
2022/10/31 02:51:41;;;;;;;0.82;0.52;;;27.40;99.90;;;;;;4952515;29;20302;-79
2022/10/31 02:54:22;;;;;;;3.17;0.70;;;27.20;99.90;;;;;;4953047;29;20207;-79
2022/10/31 02:56:57;;;;;;;3.40;0.60;;;27.20;99.90;;;;;;4971934;28;20205;-79
2022/10/31 02:59:30;;;;;;;2.13;0.40;;;27.10;99.90;;;;;;4973181;28;20654;-80
2022/10/31 03:02:25;;;;;;;1.33;0.65;;;27.00;99.90;;;;;;4964589;28;20200;-79
2022/10/31 03:05:22;;;;;;;1.70;0.40;;;26.90;99.90;;;;;;4953643;29;20211;-80
2022/10/31 03:07:59;;;;;;;0.75;0.63;;;26.90;99.90;;;;;;4952988;29;20220;-80
2022/10/31 03:10:39;;;;;;;2.15;0.57;;;26.80;99.90;;;;;;4953518;29;20227;-79
2022/10/31 03:13:15;;;;;;;0.90;0.57;;;26.80;99.90;;;;;;4966040;28;20662;-79
2022/10/31 03:15:48;;;;;;;1.00;0.50;;;26.70;99.90;;;;;;4972243;28;20245;-80
2022/10/31 03:18:24;;;;;;;3.45;0.60;;;26.70;99.90;;;;;;4972055;28;20235;-81
2022/10/31 03:21:03;;;;;;;2.28;0.80;;;26.70;99.90;;;;;;4960134;28;20313;-79
2022/10/31 03:23:38;;;;;;;3.10;0.90;;;26.70;99.90;;;;;;4951886;29;20290;-79
2022/10/31 03:26:10;;;;;;;1.75;0.80;;;26.70;99.90;;;;;;4958718;29;20214;-78
2022/10/31 03:28:47;;;;;;;2.67;0.60;;;26.70;99.90;;;;;;4964559;28;20216;-80
2022/10/31 03:31:19;;;;;;;1.80;0.80;;;26.70;99.90;;;;;;4967812;29;20287;-79
2022/10/31 03:33:53;;;;;;;1.77;0.70;;;26.80;99.90;;;;;;4957368;29;20497;-79
2022/10/31 03:36:28;;;;;;;0.90;0.65;;;26.90;99.90;;;;;;4959482;29;20290;-79
2022/10/31 03:39:02;;;;;;;0.50;0.50;;;26.90;99.90;;;;;;4952291;29;20258;-78
2022/10/31 03:41:36;;;;;;;0.40;0.40;;;26.90;99.90;;;;;;4952884;29;20240;-79
2022/10/31 03:44:11;;;;;;;5.35;0.60;;;26.90;99.90;;;;;;4952415;29;20195;-79
2022/10/31 03:46:42;;;;;;;1.88;0.80;;;26.80;99.90;;;;;;4953221;28;20713;-80
2022/10/31 03:49:14;;;;;;;1.02;0.50;;;26.80;99.90;;;;;;4952390;29;20234;-79
2022/10/31 03:51:52;;;;;;;3.40;0.60;;;26.90;99.90;;;;;;4953000;29;20204;-78
2022/10/31 03:54:29;;;;;;;1.67;0.60;;;26.90;99.90;;;;;;4954828;28;20204;-78
2022/10/31 03:57:04;;;;;;;0.60;0.60;;;26.90;99.90;;;;;;4954437;29;20569;-78
2022/10/31 03:59:38;;;;;;;0.57;0.50;;;27.00;99.90;;;;;;4952492;29;20206;-79
2022/10/31 04:02:12;;;;;;;0.93;0.60;;;27.20;99.90;;;;;;4952742;29;20203;-79
2022/10/31 04:04:46;;;;;;;1.00;0.57;;;27.30;99.90;;;;;;4970663;28;20213;-78
2022/10/31 04:07:21;;;;;;;4.90;0.68;;;27.40;99.90;;;;;;4972787;28;20188;-79
2022/10/31 04:09:54;;;;;;;2.67;0.40;;;27.40;99.90;;;;;;4972836;28;20305;-78
2022/10/31 04:12:27;;;;;;;1.38;0.40;;;27.50;99.90;;;;;;4956401;28;20223;-79
2022/10/31 04:15:01;;;;;;;1.38;0.40;;;27.60;99.90;;;;;;4952622;29;20287;-79
2022/10/31 04:17:35;;;;;;;1.08;0.20;;;27.60;99.90;;;;;;4951691;29;20236;-79
2022/10/31 04:20:07;;;;;;;3.47;0.35;;;27.60;99.90;;;;;;4950201;28;20220;-77
2022/10/31 04:22:40;;;;;;;1.40;0.40;;;27.70;99.90;;;;;;4945008;29;20224;-77
2022/10/31 04:25:11;;;;;;;1.30;0.30;;;27.60;99.90;;;;;;4947789;29;20207;-79
2022/10/31 04:27:42;;;;;;;0.30;0.30;;;27.70;99.90;;;;;;4940528;29;20224;-77
2022/10/31 04:30:13;;;;;;;0.73;0.20;;;27.60;99.90;;;;;;4943853;29;20611;-77
2022/10/31 04:32:45;;;;;;;0.17;0.17;;;27.60;99.90;;;;;;4945335;29;20200;-77
2022/10/31 04:35:15;;;;;;;0.70;0.40;;;27.50;99.90;;;;;;4935155;29;20222;-78
2022/10/31 04:37:48;;;;;;;0.13;0.13;;;27.60;99.90;;;;;;4943886;28;20216;-77
2022/10/31 04:40:19;;;;;;;0.20;0.20;;;27.50;99.90;;;;;;4950960;29;20569;-78
2022/10/31 04:42:52;;;;;;;0.20;0.20;;;27.50;99.90;;;;;;4935134;29;20227;-78
2022/10/31 04:45:22;;;;;;;0.40;0.30;;;27.30;99.90;;;;;;4948061;29;20225;-78
2022/10/31 04:47:53;;;;;;;0.82;0.30;;;27.20;99.90;;;;;;4939873;29;20200;-78
2022/10/31 04:50:24;;;;;;;0.20;0.20;;;27.20;99.90;;;;;;4949277;29;20238;-77
2022/10/31 04:52:57;;;;;;;4.70;0.47;;;27.10;99.90;;;;;;4949511;29;20694;-77
2022/10/31 04:55:27;;;;;;;0.30;0.30;;;27.10;99.90;;;;;;4952464;28;20228;-77
2022/10/31 04:57:58;;;;;;;0.30;0.30;;;27.10;99.90;;;;;;4950496;29;20717;-77
2022/10/31 05:00:29;;;;;;;0.30;0.25;;;27.10;99.90;;;;;;4952268;29;20299;-77
2022/10/31 05:03:01;;;;;;;0.40;0.20;;;27.20;99.90;;;;;;4943671;29;20223;-77
2022/10/31 05:05:34;;;;;;;1.20;0.30;;;27.30;99.90;;;;;;4943763;29;20251;-77
2022/10/31 05:08:07;;;;;;;2.38;0.40;;;27.30;99.90;;;;;;4951249;29;20200;-77
2022/10/31 05:10:38;;;;;;;0.95;0.38;;;27.30;99.90;;;;;;4942556;28;20232;-77
2022/10/31 05:13:09;;;;;;;0.20;0.20;;;27.40;99.90;;;;;;4938225;29;20239;-77
2022/10/31 05:15:40;;;;;;;0.63;0.30;;;27.50;99.90;;;;;;4954796;29;20215;-78
2022/10/31 05:18:11;;;;;;;0.32;0.20;;;27.50;99.90;;;;;;4944123;29;20231;-78
2022/10/31 05:20:42;;;;;;;0.45;0.38;;;27.40;99.90;;;;;;4951566;29;20200;-78
2022/10/31 05:23:15;;;;;;;0.90;0.30;;;27.40;99.90;;;;;;4945770;29;20220;-77
2022/10/31 05:25:46;;;;;;;0.30;0.30;;;27.30;99.90;;;;;;4949823;29;20308;-80
2022/10/31 05:28:17;;;;;;;0.38;0.20;;;27.20;99.90;;;;;;4955314;28;20360;-80
2022/10/31 05:30:48;;;;;;;0.40;0.35;;;27.20;99.90;;;;;;4953588;29;20311;-80
2022/10/31 05:33:18;;;;;;;0.22;0.20;;;27.30;99.90;;;;;;4951395;29;20251;-79
2022/10/31 05:35:49;;;;;;;0.30;0.30;;;27.40;99.90;;;;;;4950654;29;20207;-78
2022/10/31 05:38:22;;;;;;;0.30;0.30;;;27.60;99.90;;;;;;4949063;28;20254;-78
2022/10/31 05:40:53;;;;;;;0.82;0.50;;;28.50;99.90;;;;;;4952772;29;20678;-76
2022/10/31 05:43:24;;;;;;;0.30;0.30;;;29.40;99.90;;;;;;4952388;29;20197;-76
2022/10/31 05:45:57;;;;;;;0.20;0.20;;;29.40;99.90;;;;;;4948243;29;20232;-76
2022/10/31 05:48:27;;;;;;;0.22;0.22;;;29.10;99.90;;;;;;4941866;29;20601;-77
2022/10/31 05:50:58;;;;;;;0.25;0.25;;;29.20;99.90;;;;;;4952333;29;20223;-78
2022/10/31 05:53:31;;;;;;;1.75;0.38;;;29.30;99.90;;;;;;4945688;29;20204;-78
2022/10/31 05:56:02;;;;;;;0.43;0.30;;;29.30;99.90;;;;;;4942346;29;20540;-78
2022/10/31 05:58:33;;;;;;;0.77;0.30;;;30.20;99.90;;;;;;4949824;29;20643;-77
2022/10/31 06:01:04;;;;;;;0.73;0.40;;;31.30;99.90;;;;;;4949959;29;20215;-78
2022/10/31 06:03:34;;;;;;;0.30;0.30;;;32.00;99.90;;;;;;4954668;28;20208;-78
2022/10/31 06:06:05;;;;;;;0.30;0.30;;;32.60;99.90;;;;;;4952516;29;20288;-78
2022/10/31 06:08:38;;;;;;;0.30;0.30;;;32.80;97.60;;;;;;4950916;29;20203;-77
2022/10/31 06:11:09;;;;;;;0.68;0.43;;;32.70;96.40;;;;;;4951803;29;20241;-77
2022/10/31 06:13:40;;;;;;;0.75;0.35;;;32.20;94.50;;;;;;4950837;29;20227;-78
2022/10/31 06:16:11;;;;;;;1.17;0.32;;;31.70;95.80;;;;;;4949447;28;20220;-77
2022/10/31 06:18:42;;;;;;;0.22;0.22;;;31.20;97.90;;;;;;4950089;28;20283;-76
2022/10/31 06:21:13;;;;;;;0.30;0.30;;;30.90;99.50;;;;;;4950558;29;20240;-78
2022/10/31 06:23:46;;;;;;;0.30;0.30;;;30.50;99.90;;;;;;4934929;29;20224;-76
2022/10/31 06:26:16;;;;;;;0.40;0.30;;;30.10;99.90;;;;;;4949385;29;20247;-76
2022/10/31 06:28:47;;;;;;;0.40;0.40;;;29.90;99.90;;;;;;4946619;29;20659;-78
2022/10/31 06:31:18;;;;;;;2.63;0.40;;;29.60;99.90;;;;;;4942917;29;20228;-78
2022/10/31 06:33:49;;;;;;;0.70;0.40;;;29.30;99.90;;;;;;4951320;29;20220;-78
2022/10/31 06:36:21;;;;;;;0.95;0.50;;;29.00;99.90;;;;;;4959077;28;20290;-78
2022/10/31 06:38:54;;;;;;;1.13;0.30;;;28.80;99.90;;;;;;4961491;28;20204;-78
2022/10/31 06:41:25;;;;;;;0.47;0.47;;;28.50;99.90;;;;;;4953385;29;20226;-77
2022/10/31 06:43:57;;;;;;;0.60;0.30;;;28.40;99.90;;;;;;4953431;29;20204;-78
2022/10/31 06:46:31;;;;;;;8.10;0.55;;;28.20;99.90;;;;;;4954385;29;20385;-77
2022/10/31 06:49:02;;;;;;;1.15;0.52;;;28.20;99.90;;;;;;4952612;29;20679;-77
2022/10/31 06:51:35;;;;;;;0.75;0.45;;;28.00;99.90;;;;;;4951049;29;20228;-77
2022/10/31 06:54:07;;;;;;;0.50;0.50;;;27.90;99.90;;;;;;4951289;28;20204;-77
2022/10/31 06:56:40;;;;;;;0.40;0.40;;;27.80;99.90;;;;;;4949545;29;20211;-77
2022/10/31 06:59:11;;;;;;;0.35;0.28;;;27.70;99.90;;;;;;4946629;29;20202;-77
2022/10/31 07:01:42;;;;;;;0.68;0.40;;;27.60;99.90;;;;;;4949526;29;20671;-77
2022/10/31 07:04:13;;;;;;;0.50;0.50;;;27.60;99.90;;;;;;4953571;29;20202;-77
2022/10/31 07:06:43;;;;;;;1.60;0.60;;;27.50;99.90;;;;;;4950127;29;20741;-76
2022/10/31 07:09:16;;;;;;;0.75;0.40;;;27.40;99.90;;;;;;4949504;29;20670;-77
2022/10/31 07:11:49;;;;;;;0.47;0.47;;;27.40;99.90;;;;;;4941871;28;20232;-77
2022/10/31 07:14:19;;;;;;;0.68;0.55;;;27.40;99.90;;;;;;4935840;29;20290;-77
2022/10/31 07:16:52;;;;;;;0.85;0.50;;;27.40;99.90;;;;;;4951096;29;20204;-77
2022/10/31 07:19:23;;;;;;;0.50;0.50;;;27.40;99.90;;;;;;4951770;29;20230;-76
2022/10/31 07:21:54;;;;;;;7.05;0.60;;;27.30;99.90;;;;;;4950886;28;20262;-77
2022/10/31 07:24:27;;;;;;;2.22;0.40;;;27.30;99.90;;;;;;4951843;29;20204;-76
2022/10/31 07:26:58;;;;;;;2.00;0.40;;;27.30;99.90;;;;;;4954259;28;20199;-77
2022/10/31 07:29:28;;;;;;;0.40;0.40;;;27.30;99.90;;;;;;4953435;28;20833;-77
2022/10/31 07:31:59;;;;;;;1.48;0.50;;;27.30;99.90;;;;;;4953869;29;20211;-76
2022/10/31 07:34:30;;;;;;;0.60;0.55;;;27.30;99.90;;;;;;4953160;29;20204;-75
2022/10/31 07:37:01;;;;;;;1.23;0.55;;;27.20;99.90;;;;;;4953319;29;20200;-76
2022/10/31 07:39:33;;;;;;;0.60;0.60;;;27.20;99.90;;;;;;4953158;29;20206;-76
2022/10/31 07:42:05;;;;;;;0.77;0.57;;;27.20;99.90;;;;;;4950066;29;20207;-76
2022/10/31 07:44:36;;;;;;;1.10;0.60;;;27.20;99.90;;;;;;4955797;28;20211;-76
2022/10/31 07:47:07;;;;;;;0.80;0.70;;;27.20;99.90;;;;;;4955322;29;20208;-77
2022/10/31 07:49:38;;;;;;;1.23;0.50;;;27.20;99.90;;;;;;4955126;29;20200;-76
2022/10/31 07:52:09;;;;;;;0.93;0.50;;;27.20;99.90;;;;;;4957166;29;20325;-77
2022/10/31 07:54:41;;;;;;;0.50;0.50;;;27.10;99.90;;;;;;4954039;29;20555;-77
2022/10/31 07:57:12;;;;;;;0.70;0.60;;;27.10;99.90;;;;;;4952159;29;20200;-77
2022/10/31 07:59:43;;;;;;;0.82;0.57;;;27.10;99.90;;;;;;4949555;29;20200;-76
2022/10/31 08:02:13;;;;;;;1.20;0.50;;;27.10;99.90;;;;;;4948966;28;20659;-77
2022/10/31 08:04:44;;;;;;;0.50;0.50;;;27.00;99.90;;;;;;4939563;29;20200;-76
2022/10/31 08:07:15;;;;;;;0.68;0.60;;;27.00;99.90;;;;;;4951536;29;20207;-77
2022/10/31 08:09:48;;;;;;;0.55;0.55;;;27.00;99.90;;;;;;4953315;28;20219;-77
2022/10/31 08:12:19;;;;;;;0.63;0.60;;;27.00;99.90;;;;;;4952757;28;20207;-76
2022/10/31 08:14:50;;;;;;;2.28;1.50;;;27.00;99.90;;;;;;4952621;29;20206;-77
2022/10/31 08:17:21;;;;;;;1.23;0.82;;;27.00;99.90;;;;;;4952178;29;20239;-76
2022/10/31 08:19:52;;;;;;;1.80;1.33;;;27.00;99.90;;;;;;4951707;28;20669;-76
2022/10/31 08:22:23;;;;;;;0.75;0.60;;;27.00;99.90;;;;;;4953861;29;20204;-76
2022/10/31 08:24:55;;;;;;;0.80;0.80;;;27.00;99.90;;;;;;4952818;29;20196;-76
2022/10/31 08:27:27;;;;;;;0.68;0.57;;;27.00;99.90;;;;;;4953805;29;20192;-77
2022/10/31 08:29:58;;;;;;;1.27;0.57;;;26.90;99.90;;;;;;4952580;29;20200;-81
2022/10/31 08:32:29;;;;;;;2.90;0.70;;;27.00;99.90;;;;;;4952919;29;20287;-78
2022/10/31 08:35:00;;;;;;;0.60;0.45;;;26.90;99.90;;;;;;4955417;28;20195;-78
2022/10/31 08:37:32;;;;;;;0.88;0.77;;;26.90;99.90;;;;;;4955748;28;20216;-78
2022/10/31 08:40:05;;;;;;;1.45;0.60;;;26.90;99.90;;;;;;4940198;28;20201;-77
2022/10/31 08:42:36;;;;;;;0.50;0.50;;;26.90;99.90;;;;;;4955670;29;20311;-78
2022/10/31 08:45:07;;;;;;;0.50;0.50;;;26.90;99.90;;;;;;4956091;29;20204;-78
2022/10/31 08:47:38;;;;;;;1.02;0.50;;;26.80;99.90;;;;;;4955949;29;20196;-78
2022/10/31 08:50:09;;;;;;;2.53;0.45;;;26.80;99.90;;;;;;4955441;29;20200;-78
2022/10/31 08:52:39;;;;;;;0.55;0.55;;;26.80;99.90;;;;;;4956160;28;20207;-78
2022/10/31 08:55:12;;;;;;;3.05;0.60;;;26.80;99.90;;;;;;4955036;29;20200;-78
2022/10/31 08:57:43;;;;;;;0.85;0.55;;;26.70;99.90;;;;;;4955681;29;20200;-78
2022/10/31 09:00:14;;;;;;;0.95;0.45;;;26.80;99.90;;;;;;4955363;29;20208;-78
2022/10/31 09:02:45;;;;;;;0.50;0.50;;;26.70;99.90;;;;;;4955600;29;20678;-77
2022/10/31 09:05:16;;;;;;;0.95;0.52;;;26.70;99.90;;;;;;4953048;29;20654;-78
2022/10/31 09:07:47;;;;;;;0.90;0.70;;;26.70;99.90;;;;;;4950241;29;20208;-78
2022/10/31 09:10:20;;;;;;;0.85;0.60;;;26.70;99.90;;;;;;4949092;28;20211;-78
2022/10/31 09:12:56;;;;;;;0.40;0.40;;;26.70;99.90;;;;;;4947186;29;20670;-78
2022/10/31 09:15:28;;;;;;;0.60;0.60;;;26.60;99.90;;;;;;4945304;29;20680;-78
2022/10/31 09:17:59;;;;;;;1.30;0.70;;;26.60;99.90;;;;;;4949122;29;20697;-79
2022/10/31 09:20:29;;;;;;;1.40;0.60;;;26.60;99.90;;;;;;4955345;29;20238;-78
2022/10/31 09:23:01;;;;;;;2.38;0.50;;;26.50;99.90;;;;;;4943693;29;20228;-77
2022/10/31 09:25:35;;;;;;;0.68;0.50;;;26.50;99.90;;;;;;4951297;28;20196;-79
2022/10/31 09:28:06;;;;;;;0.40;0.40;;;26.40;99.90;;;;;;4948099;29;20286;-78
2022/10/31 09:30:38;;;;;;;1.95;0.50;;;26.30;99.90;;;;;;4952613;28;20229;-78
2022/10/31 09:33:09;;;;;;;0.55;0.30;;;26.20;99.90;;;;;;4956078;28;20196;-77
2022/10/31 09:35:41;;;;;;;1.10;0.40;;;26.10;99.90;;;;;;4954740;29;20199;-77
2022/10/31 09:38:14;;;;;;;1.33;0.50;;;25.90;99.90;;;;;;4953697;29;20296;-79
2022/10/31 09:40:48;;;;;;;0.70;0.40;;;25.80;99.90;;;;;;4952275;29;20200;-78
2022/10/31 09:43:25;;;;;;;1.45;0.50;;;25.70;99.90;;;;;;4951657;28;20196;-78
2022/10/31 09:46:03;;;;;;;0.40;0.40;;;25.70;99.90;;;;;;4953755;29;20746;-78
2022/10/31 09:48:49;;;;;;;1.95;0.40;;;25.70;99.90;;;;;;4951412;29;20208;-78
2022/10/31 09:51:23;;;;;;;0.75;0.50;;;25.60;99.90;;;;;;4947436;28;20657;-78
2022/10/31 09:53:58;;;;;;;0.63;0.52;;;25.60;99.90;;;;;;4949413;29;20203;-78
2022/10/31 09:56:34;;;;;;;0.60;0.43;;;25.50;99.90;;;;;;4954479;29;20556;-78
2022/10/31 09:59:07;;;;;;;0.40;0.40;;;25.50;99.90;;;;;;4954319;29;20200;-77
2022/10/31 10:01:45;;;;;;;2.38;0.50;;;25.50;99.90;;;;;;4971255;28;20203;-78
2022/10/31 10:04:37;;;;;;;0.40;0.40;;;25.50;99.90;;;;;;4958067;28;20220;-78
2022/10/31 10:07:16;;;;;;;0.43;0.40;;;25.50;99.90;;;;;;4952593;29;20204;-78
2022/10/31 10:09:47;;;;;;;0.30;0.30;;;25.50;99.90;;;;;;4942724;28;20200;-77
2022/10/31 10:12:28;;;;;;;1.65;0.60;;;25.40;99.90;;;;;;4937285;29;20224;-77
2022/10/31 10:15:16;;;;;;;0.88;0.45;;;25.40;99.90;;;;;;4951291;29;20200;-77
2022/10/31 10:17:54;;;;;;;0.50;0.40;;;25.40;99.90;;;;;;4954850;28;20235;-77
2022/10/31 10:20:37;;;;;;;0.43;0.30;;;25.40;99.90;;;;;;4954017;29;20199;-77
2022/10/31 10:23:27;;;;;;;0.47;0.47;;;25.40;99.90;;;;;;4944503;29;20205;-77
2022/10/31 10:26:19;;;;;;;0.45;0.32;;;25.40;99.90;;;;;;4942611;29;20224;-78
2022/10/31 10:29:06;;;;;;;0.60;0.50;;;25.30;99.90;;;;;;4945213;29;20204;-77
2022/10/31 10:31:41;;;;;;;0.52;0.45;;;25.30;99.90;;;;;;4955210;29;20223;-78
2022/10/31 10:34:21;;;;;;;0.65;0.40;;;25.20;99.90;;;;;;4973622;28;20254;-77
2022/10/31 10:36:59;;;;;;;1.73;0.35;;;25.30;99.90;;;;;;4958750;29;20231;-78
2022/10/31 10:39:36;;;;;;;0.40;0.30;;;25.20;99.90;;;;;;4957863;29;20222;-78
2022/10/31 10:48:09;;;;;;;1.42;0.40;;;25.20;99.90;;;;;;4948144;29;20638;-77
2022/10/31 10:50:45;;;;;;;0.30;0.30;;;25.20;99.90;;;;;;4961567;28;20235;-77
2022/10/31 10:53:36;;;;;;;0.50;0.40;;;25.20;99.90;;;;;;4951357;29;20207;-79
2022/10/31 10:56:20;;;;;;;0.95;0.40;;;25.10;99.90;;;;;;4956822;29;20219;-78
2022/10/31 10:58:52;;;;;;;0.88;0.30;;;25.10;99.90;;;;;;4958661;29;20204;-78
2022/10/31 11:01:26;;;;;;;0.40;0.40;;;25.10;99.90;;;;;;4953175;29;20308;-78
2022/10/31 11:03:57;;;;;;;0.30;0.30;;;25.10;99.90;;;;;;4954105;29;20316;-78
2022/10/31 11:06:29;;;;;;;0.60;0.40;;;25.00;99.90;;;;;;4957052;29;20227;-78
2022/10/31 11:09:10;;;;;;;0.30;0.30;;;24.90;99.90;;;;;;4954074;28;20279;-79
2022/10/31 11:11:42;;;;;;;0.70;0.40;;;24.90;99.90;;;;;;4944940;29;20231;-78
2022/10/31 11:14:20;;;;;;;0.50;0.32;;;24.90;99.90;;;;;;4958024;29;20270;-78
2022/10/31 11:16:56;;;;;;;0.38;0.38;;;24.90;99.90;;;;;;4956773;28;20192;-78
2022/10/31 11:19:29;;;;;;;0.80;0.50;;;24.80;99.90;;;;;;4955208;29;20219;-78
2022/10/31 11:22:10;;;;;;;0.82;0.57;;;24.70;99.90;;;;;;4939402;29;20655;-78
2022/10/31 11:24:45;;;;;;;0.40;0.40;;;24.80;99.90;;;;;;4960669;28;20295;-79
2022/10/31 11:27:22;;;;;;;0.50;0.50;;;24.80;99.90;;;;;;4946816;28;20216;-79
2022/10/31 11:29:54;;;;;;;1.00;0.43;;;24.70;99.90;;;;;;4936466;29;20728;-78
2022/10/31 11:33:01;;;;;;;1.13;0.50;;;24.70;99.90;;;;;;4961573;28;20327;-77
2022/10/31 11:35:33;;;;;;;0.40;0.40;;;24.70;99.90;;;;;;4954328;29;20201;-78
2022/10/31 11:38:10;;;;;;;0.30;0.30;;;24.70;99.90;;;;;;4961309;29;20204;-78
2022/10/31 11:40:40;;;;;;;0.40;0.40;;;24.70;99.90;;;;;;4956741;29;20222;-79
2022/10/31 11:43:22;;;;;;;0.85;0.50;;;24.70;99.90;;;;;;4960582;28;20216;-79
2022/10/31 11:45:58;;;;;;;0.52;0.40;;;24.70;99.90;;;;;;4957328;29;20196;-78
2022/10/31 11:48:34;;;;;;;0.68;0.40;;;24.70;99.90;;;;;;4953447;29;20916;-78
2022/10/31 11:51:08;;;;;;;0.65;0.52;;;24.70;99.90;;;;;;4950378;29;20200;-78
2022/10/31 11:53:55;;;;;;;0.50;0.50;;;24.60;99.90;;;;;;4952749;28;20196;-79
2022/10/31 11:56:30;;;;;;;0.50;0.50;;;24.60;99.90;;;;;;4932352;29;20223;-78
2022/10/31 11:59:04;;;;;;;0.55;0.40;;;24.60;99.90;;;;;;4963490;28;20227;-78
2022/10/31 12:01:36;;;;;;;0.55;0.40;;;24.60;99.90;;;;;;4933806;29;20226;-79
2022/10/31 12:04:12;;;;;;;0.57;0.57;;;24.50;99.90;;;;;;4950506;29;20580;-77
2022/10/31 12:06:46;;;;;;;0.57;0.47;;;24.50;99.90;;;;;;4946170;29;20244;-78
2022/10/31 12:09:24;;;;;;;0.60;0.60;;;24.50;99.90;;;;;;4958350;28;20246;-78
2022/10/31 12:12:20;;;;;;;0.82;0.50;;;24.40;99.90;;;;;;4938910;29;20224;-78
2022/10/31 12:15:01;;;;;;;1.40;0.50;;;24.40;99.90;;;;;;4953240;28;20279;-78
2022/10/31 12:17:40;;;;;;;0.47;0.47;;;24.30;99.90;;;;;;4953517;28;20236;-78
2022/10/31 12:20:23;;;;;;;0.60;0.50;;;24.20;99.90;;;;;;4953889;29;20659;-78
2022/10/31 12:23:02;;;;;;;0.60;0.60;;;24.20;99.90;;;;;;4948528;29;20204;-78
2022/10/31 12:25:44;;;;;;;1.67;0.70;;;24.10;99.90;;;;;;4957518;28;20214;-78
2022/10/31 12:28:41;;;;;;;0.70;0.40;;;24.10;99.90;;;;;;4954619;29;20571;-78
2022/10/31 12:31:27;;;;;;;0.60;0.60;;;24.00;99.90;;;;;;4955966;29;20199;-78
2022/10/31 12:34:10;;;;;;;0.73;0.70;;;24.00;99.90;;;;;;4956156;28;20296;-78
2022/10/31 12:36:53;;;;;;;0.70;0.70;;;23.90;99.90;;;;;;4955878;29;20204;-78
2022/10/31 12:39:41;;;;;;;1.85;0.73;;;23.90;99.90;;;;;;4950938;29;20215;-79
2022/10/31 12:42:21;;;;;;;1.08;0.70;;;23.80;99.90;;;;;;4946281;29;20200;-80
2022/10/31 12:45:27;;;;;;;0.68;0.68;;;23.80;99.90;;;;;;4956168;29;20254;-79
2022/10/31 12:48:12;;;;;;;1.92;0.70;;;23.70;99.90;;;;;;4946784;29;20203;-79
2022/10/31 12:50:59;;;;;;;0.70;0.70;;;23.60;99.90;;;;;;4956071;28;20283;-79
2022/10/31 12:53:47;;;;;;;0.60;0.60;;;23.60;99.90;;;;;;4951070;29;20235;-79
2022/10/31 12:56:30;;;;;;;0.73;0.70;;;23.60;99.90;;;;;;4946367;29;20256;-79
2022/10/31 12:59:07;;;;;;;1.08;0.80;;;23.60;99.90;;;;;;4955811;29;20220;-78
2022/10/31 13:01:41;;;;;;;1.10;0.80;;;23.60;99.90;;;;;;4949113;29;20199;-78
2022/10/31 13:04:20;;;;;;;1.27;0.70;;;23.50;99.90;;;;;;4939686;29;20204;-79
2022/10/31 13:06:56;;;;;;;1.02;0.70;;;23.50;99.90;;;;;;4954917;28;20716;-79
2022/10/31 13:09:35;;;;;;;0.85;0.70;;;23.50;99.90;;;;;;4945673;29;20203;-79
2022/10/31 13:12:11;;;;;;;1.02;0.88;;;23.50;99.90;;;;;;4951672;29;20246;-79
2022/10/31 13:14:46;;;;;;;0.70;0.70;;;23.50;99.90;;;;;;4950761;29;20200;-78
2022/10/31 13:17:23;;;;;;;2.45;0.80;;;23.50;99.90;;;;;;4943784;29;20223;-79
2022/10/31 13:20:00;;;;;;;1.23;0.73;;;23.40;99.90;;;;;;4949493;29;20200;-78
2022/10/31 13:22:37;;;;;;;1.05;0.80;;;23.40;99.90;;;;;;4954463;29;20231;-78
2022/10/31 13:25:17;;;;;;;2.53;0.70;;;23.40;99.90;;;;;;4953640;28;20199;-78
2022/10/31 13:27:52;;;;;;;0.82;0.73;;;23.40;99.90;;;;;;4954382;29;20207;-78
2022/10/31 13:30:24;;;;;;;0.63;0.63;;;23.50;99.90;;;;;;4955439;29;20239;-78
2022/10/31 13:32:59;;;;;;;0.70;0.70;;;23.40;99.90;;;;;;4954540;28;20235;-78